sensor_id;sensor_type;location;lat;lon;timestamp;pressure;altitude;pressure_sealevel;temperature;humidity
10462;BME280;5278;42.656;23.374;2023-08-08T00:02:00;94469.75;;;22.35;70.44
10462;BME280;5278;42.656;23.374;2023-08-08T00:04:27;94470.28;;;22.37;70.23
10462;BME280;5278;42.656;23.374;2023-08-08T00:06:54;94462.00;;;22.28;70.51
10462;BME280;5278;42.656;23.374;2023-08-08T00:09:21;94484.25;;;22.32;70.55
10462;BME280;5278;42.656;23.374;2023-08-08T00:11:48;94451.25;;;22.13;69.40
10462;BME280;5278;42.656;23.374;2023-08-08T00:14:16;94480.53;;;22.28;70.58
10462;BME280;5278;42.656;23.374;2023-08-08T00:16:43;94460.91;;;22.24;69.85
10462;BME280;5278;42.656;23.374;2023-08-08T00:19:10;94463.88;;;22.33;69.60
10462;BME280;5278;42.656;23.374;2023-08-08T00:21:37;94478.91;;;22.27;68.17
10462;BME280;5278;42.656;23.374;2023-08-08T00:24:04;94477.34;;;22.26;68.26
10462;BME280;5278;42.656;23.374;2023-08-08T00:26:31;94471.44;;;22.19;68.16
10462;BME280;5278;42.656;23.374;2023-08-08T00:28:58;94479.38;;;22.19;67.81
10462;BME280;5278;42.656;23.374;2023-08-08T00:31:26;94493.13;;;22.16;67.71
10462;BME280;5278;42.656;23.374;2023-08-08T00:33:53;94486.41;;;22.09;67.60
10462;BME280;5278;42.656;23.374;2023-08-08T00:38:47;94483.59;;;21.94;67.77
10462;BME280;5278;42.656;23.374;2023-08-08T00:41:14;94492.09;;;21.96;67.79
10462;BME280;5278;42.656;23.374;2023-08-08T00:43:41;94484.94;;;21.74;68.99
10462;BME280;5278;42.656;23.374;2023-08-08T00:46:09;94485.88;;;21.85;68.20
10462;BME280;5278;42.656;23.374;2023-08-08T00:48:37;94488.16;;;21.76;68.20
10462;BME280;5278;42.656;23.374;2023-08-08T00:51:06;94490.06;;;21.81;67.92
10462;BME280;5278;42.656;23.374;2023-08-08T00:53:33;94496.78;;;21.67;68.35
10462;BME280;5278;42.656;23.374;2023-08-08T00:56:00;94496.63;;;21.78;68.45
10462;BME280;5278;42.656;23.374;2023-08-08T00:58:27;94497.94;;;21.76;67.68
10462;BME280;5278;42.656;23.374;2023-08-08T01:00:54;94487.41;;;21.59;68.24
10462;BME280;5278;42.656;23.374;2023-08-08T01:03:25;94488.03;;;21.66;67.57
10462;BME280;5278;42.656;23.374;2023-08-08T01:05:59;94492.00;;;21.69;68.30
10462;BME280;5278;42.656;23.374;2023-08-08T01:08:33;94481.00;;;21.55;67.33
10462;BME280;5278;42.656;23.374;2023-08-08T01:11:02;94493.44;;;21.55;68.71
10462;BME280;5278;42.656;23.374;2023-08-08T01:13:31;94492.06;;;21.74;67.60
10462;BME280;5278;42.656;23.374;2023-08-08T01:15:59;94495.47;;;21.91;67.12
10462;BME280;5278;42.656;23.374;2023-08-08T01:18:28;94497.72;;;21.82;65.64
10462;BME280;5278;42.656;23.374;2023-08-08T01:20:58;94505.47;;;21.89;65.50
10462;BME280;5278;42.656;23.374;2023-08-08T01:23:29;94515.13;;;21.95;65.49
10462;BME280;5278;42.656;23.374;2023-08-08T01:25:58;94505.06;;;21.97;65.32
10462;BME280;5278;42.656;23.374;2023-08-08T01:28:26;94505.34;;;22.22;65.19
10462;BME280;5278;42.656;23.374;2023-08-08T01:30:54;94518.06;;;21.99;63.86
10462;BME280;5278;42.656;23.374;2023-08-08T01:33:21;94510.72;;;21.84;64.81
10462;BME280;5278;42.656;23.374;2023-08-08T01:35:54;94509.56;;;21.75;65.39
10462;BME280;5278;42.656;23.374;2023-08-08T01:38:26;94518.22;;;21.92;65.38
10462;BME280;5278;42.656;23.374;2023-08-08T01:40:57;94523.59;;;21.97;65.41
10462;BME280;5278;42.656;23.374;2023-08-08T01:43:26;94529.69;;;21.76;65.24
10462;BME280;5278;42.656;23.374;2023-08-08T01:45:54;94534.75;;;21.82;64.96
10462;BME280;5278;42.656;23.374;2023-08-08T01:48:21;94551.00;;;21.69;65.32
10462;BME280;5278;42.656;23.374;2023-08-08T01:50:48;94451.47;;;21.03;65.80
10462;BME280;5278;42.656;23.374;2023-08-08T01:53:15;94550.09;;;21.80;65.64
10462;BME280;5278;42.656;23.374;2023-08-08T01:55:42;94559.69;;;21.65;65.53
10462;BME280;5278;42.656;23.374;2023-08-08T01:58:11;94565.78;;;21.65;65.42
10462;BME280;5278;42.656;23.374;2023-08-08T02:00:38;94553.34;;;21.66;65.33
10462;BME280;5278;42.656;23.374;2023-08-08T02:03:06;94566.44;;;21.56;65.48
10462;BME280;5278;42.656;23.374;2023-08-08T02:05:33;94567.84;;;21.63;65.77
10462;BME280;5278;42.656;23.374;2023-08-08T02:08:00;94571.59;;;21.67;65.58
10462;BME280;5278;42.656;23.374;2023-08-08T02:10:27;94562.25;;;21.60;65.19
10462;BME280;5278;42.656;23.374;2023-08-08T02:12:54;94566.38;;;21.51;65.68
10462;BME280;5278;42.656;23.374;2023-08-08T02:15:22;94568.94;;;21.45;66.04
10462;BME280;5278;42.656;23.374;2023-08-08T02:17:50;94549.34;;;21.25;66.50
10462;BME280;5278;42.656;23.374;2023-08-08T02:20:17;94560.19;;;21.45;66.05
10462;BME280;5278;42.656;23.374;2023-08-08T02:22:43;94570.13;;;21.55;66.29
10462;BME280;5278;42.656;23.374;2023-08-08T02:25:11;94574.91;;;21.58;66.12
10462;BME280;5278;42.656;23.374;2023-08-08T02:27:37;94578.78;;;21.67;65.44
10462;BME280;5278;42.656;23.374;2023-08-08T02:30:06;94588.00;;;21.86;65.37
10462;BME280;5278;42.656;23.374;2023-08-08T02:32:34;94592.22;;;21.87;63.64
10462;BME280;5278;42.656;23.374;2023-08-08T02:35:01;94588.97;;;21.80;63.80
10462;BME280;5278;42.656;23.374;2023-08-08T02:37:27;94580.03;;;21.64;65.10
10462;BME280;5278;42.656;23.374;2023-08-08T02:39:54;94598.63;;;21.69;64.87
10462;BME280;5278;42.656;23.374;2023-08-08T02:42:21;94584.53;;;21.64;65.36
10462;BME280;5278;42.656;23.374;2023-08-08T02:44:49;94591.50;;;21.53;65.12
10462;BME280;5278;42.656;23.374;2023-08-08T02:47:16;94598.91;;;21.51;65.94
10462;BME280;5278;42.656;23.374;2023-08-08T02:49:45;94608.50;;;21.57;65.62
10462;BME280;5278;42.656;23.374;2023-08-08T02:52:11;94615.44;;;21.41;65.46
10462;BME280;5278;42.656;23.374;2023-08-08T02:54:38;94619.66;;;21.42;66.27
10462;BME280;5278;42.656;23.374;2023-08-08T02:57:05;94610.84;;;21.37;66.10
10462;BME280;5278;42.656;23.374;2023-08-08T02:59:32;94615.81;;;21.33;66.69
10462;BME280;5278;42.656;23.374;2023-08-08T03:02:00;94628.38;;;21.43;66.23
10462;BME280;5278;42.656;23.374;2023-08-08T03:04:27;94626.03;;;21.63;65.45
10462;BME280;5278;42.656;23.374;2023-08-08T03:06:55;94623.81;;;21.38;65.88
10462;BME280;5278;42.656;23.374;2023-08-08T03:09:22;94616.44;;;21.24;66.69
10462;BME280;5278;42.656;23.374;2023-08-08T03:11:49;94609.56;;;21.39;65.95
10462;BME280;5278;42.656;23.374;2023-08-08T03:14:17;94619.91;;;21.41;66.36
10462;BME280;5278;42.656;23.374;2023-08-08T03:16:43;94624.84;;;21.54;66.39
10462;BME280;5278;42.656;23.374;2023-08-08T03:19:10;94622.22;;;21.54;65.24
10462;BME280;5278;42.656;23.374;2023-08-08T03:21:37;94624.19;;;21.47;65.75
10462;BME280;5278;42.656;23.374;2023-08-08T03:24:05;94627.56;;;21.42;66.46
10462;BME280;5278;42.656;23.374;2023-08-08T03:26:32;94629.03;;;21.33;65.66
10462;BME280;5278;42.656;23.374;2023-08-08T03:28:59;94630.31;;;21.14;67.00
10462;BME280;5278;42.656;23.374;2023-08-08T03:31:25;94631.59;;;21.28;67.07
10462;BME280;5278;42.656;23.374;2023-08-08T03:33:53;94625.75;;;21.43;65.63
10462;BME280;5278;42.656;23.374;2023-08-08T03:36:20;94634.47;;;21.43;65.46
10462;BME280;5278;42.656;23.374;2023-08-08T03:38:46;94638.66;;;21.39;66.09
10462;BME280;5278;42.656;23.374;2023-08-08T03:41:15;94645.75;;;21.22;66.27
10462;BME280;5278;42.656;23.374;2023-08-08T03:43:42;94646.75;;;21.16;66.43
10462;BME280;5278;42.656;23.374;2023-08-08T03:46:08;94631.22;;;21.08;66.95
10462;BME280;5278;42.656;23.374;2023-08-08T03:48:37;94645.41;;;21.02;67.22
10462;BME280;5278;42.656;23.374;2023-08-08T03:51:04;94640.44;;;21.05;67.15
10462;BME280;5278;42.656;23.374;2023-08-08T03:53:30;94639.06;;;21.03;67.04
10462;BME280;5278;42.656;23.374;2023-08-08T03:55:57;94640.13;;;21.02;66.88
10462;BME280;5278;42.656;23.374;2023-08-08T03:58:26;94627.88;;;21.79;64.79
10462;BME280;5278;42.656;23.374;2023-08-08T04:00:53;94624.59;;;22.32;62.01
10462;BME280;5278;42.656;23.374;2023-08-08T04:03:20;94622.69;;;22.71;60.26
10462;BME280;5278;42.656;23.374;2023-08-08T04:05:47;94632.66;;;23.18;58.24
10462;BME280;5278;42.656;23.374;2023-08-08T04:08:14;94638.53;;;23.52;56.68
10462;BME280;5278;42.656;23.374;2023-08-08T04:10:41;94636.66;;;23.84;55.38
10462;BME280;5278;42.656;23.374;2023-08-08T04:13:08;94651.09;;;24.03;54.55
10462;BME280;5278;42.656;23.374;2023-08-08T04:15:37;94661.59;;;24.20;53.87
10462;BME280;5278;42.656;23.374;2023-08-08T04:18:04;94670.66;;;24.29;53.49
10462;BME280;5278;42.656;23.374;2023-08-08T04:20:32;94675.16;;;24.29;53.60
10462;BME280;5278;42.656;23.374;2023-08-08T04:22:59;94673.88;;;24.36;53.19
10462;BME280;5278;42.656;23.374;2023-08-08T04:25:27;94672.06;;;24.47;52.55
10462;BME280;5278;42.656;23.374;2023-08-08T04:27:54;94672.06;;;24.47;52.52
10462;BME280;5278;42.656;23.374;2023-08-08T04:30:20;94673.94;;;24.52;52.94
10462;BME280;5278;42.656;23.374;2023-08-08T04:32:49;94681.09;;;24.51;52.81
10462;BME280;5278;42.656;23.374;2023-08-08T04:35:16;94673.38;;;24.44;52.85
10462;BME280;5278;42.656;23.374;2023-08-08T04:37:43;94679.50;;;24.45;52.63
10462;BME280;5278;42.656;23.374;2023-08-08T04:40:12;94680.84;;;24.53;52.51
10462;BME280;5278;42.656;23.374;2023-08-08T04:42:39;94684.88;;;24.60;52.23
10462;BME280;5278;42.656;23.374;2023-08-08T04:45:07;94685.41;;;24.62;51.99
10462;BME280;5278;42.656;23.374;2023-08-08T04:47:34;94691.28;;;24.69;51.97
10462;BME280;5278;42.656;23.374;2023-08-08T04:50:03;94679.63;;;24.80;51.37
10462;BME280;5278;42.656;23.374;2023-08-08T04:52:30;94677.56;;;24.93;50.86
10462;BME280;5278;42.656;23.374;2023-08-08T04:54:56;94674.69;;;25.14;50.01
10462;BME280;5278;42.656;23.374;2023-08-08T04:57:23;94677.63;;;25.33;49.26
10462;BME280;5278;42.656;23.374;2023-08-08T04:59:56;94676.59;;;25.39;49.08
10462;BME280;5278;42.656;23.374;2023-08-08T05:02:49;94680.31;;;25.43;48.91
10462;BME280;5278;42.656;23.374;2023-08-08T05:05:45;94687.22;;;25.39;48.69
10462;BME280;5278;42.656;23.374;2023-08-08T05:08:23;94700.81;;;25.53;48.26
10462;BME280;5278;42.656;23.374;2023-08-08T05:10:50;94707.22;;;25.67;47.79
10462;BME280;5278;42.656;23.374;2023-08-08T05:13:17;94702.94;;;25.96;46.79
10462;BME280;5278;42.656;23.374;2023-08-08T05:15:43;94713.09;;;26.25;46.22
10462;BME280;5278;42.656;23.374;2023-08-08T05:18:10;94730.84;;;26.60;44.94
10462;BME280;5278;42.656;23.374;2023-08-08T05:20:39;94736.88;;;26.90;44.17
10462;BME280;5278;42.656;23.374;2023-08-08T05:23:05;94745.50;;;27.31;42.85
10462;BME280;5278;42.656;23.374;2023-08-08T05:25:32;94741.53;;;27.73;42.29
10462;BME280;5278;42.656;23.374;2023-08-08T05:27:59;94727.34;;;28.06;41.27
10462;BME280;5278;42.656;23.374;2023-08-08T05:30:26;94732.41;;;28.13;40.58
10462;BME280;5278;42.656;23.374;2023-08-08T05:32:53;94734.13;;;27.99;40.54
10462;BME280;5278;42.656;23.374;2023-08-08T05:35:20;94742.75;;;27.86;40.78
10462;BME280;5278;42.656;23.374;2023-08-08T05:37:48;94735.06;;;27.79;40.61
10462;BME280;5278;42.656;23.374;2023-08-08T05:40:15;94750.28;;;27.83;40.56
10462;BME280;5278;42.656;23.374;2023-08-08T05:42:42;94749.59;;;28.02;40.33
10462;BME280;5278;42.656;23.374;2023-08-08T05:45:09;94756.16;;;28.48;39.24
10462;BME280;5278;42.656;23.374;2023-08-08T05:47:38;94753.06;;;28.89;38.70
10462;BME280;5278;42.656;23.374;2023-08-08T05:50:06;94752.81;;;29.33;37.33
10462;BME280;5278;42.656;23.374;2023-08-08T05:52:33;94757.59;;;29.73;36.96
10462;BME280;5278;42.656;23.374;2023-08-08T05:55:01;94765.19;;;30.04;36.35
10462;BME280;5278;42.656;23.374;2023-08-08T05:57:28;94764.78;;;30.10;35.89
10462;BME280;5278;42.656;23.374;2023-08-08T05:59:55;94759.22;;;29.69;36.25
10462;BME280;5278;42.656;23.374;2023-08-08T06:02:21;94775.44;;;29.59;36.24
10462;BME280;5278;42.656;23.374;2023-08-08T06:04:48;94778.44;;;29.58;35.88
10462;BME280;5278;42.656;23.374;2023-08-08T06:07:15;94779.44;;;29.62;35.61
10462;BME280;5278;42.656;23.374;2023-08-08T06:09:41;94769.34;;;29.35;36.09
10462;BME280;5278;42.656;23.374;2023-08-08T06:12:10;94771.34;;;29.67;36.08
10462;BME280;5278;42.656;23.374;2023-08-08T06:14:38;94779.69;;;30.03;35.40
10462;BME280;5278;42.656;23.374;2023-08-08T06:17:05;94772.47;;;30.49;34.28
10462;BME280;5278;42.656;23.374;2023-08-08T06:19:33;94771.59;;;30.54;34.26
10462;BME280;5278;42.656;23.374;2023-08-08T06:21:59;94775.56;;;30.24;34.64
10462;BME280;5278;42.656;23.374;2023-08-08T06:24:28;94774.81;;;30.37;34.82
10462;BME280;5278;42.656;23.374;2023-08-08T06:26:56;94776.56;;;30.60;34.08
10462;BME280;5278;42.656;23.374;2023-08-08T06:29:24;94775.09;;;30.95;33.44
10462;BME280;5278;42.656;23.374;2023-08-08T06:31:52;94766.97;;;31.14;33.06
10462;BME280;5278;42.656;23.374;2023-08-08T06:34:19;94769.41;;;31.51;32.40
10462;BME280;5278;42.656;23.374;2023-08-08T06:36:46;94778.16;;;31.71;31.73
10462;BME280;5278;42.656;23.374;2023-08-08T06:39:13;94770.59;;;31.95;31.28
10462;BME280;5278;42.656;23.374;2023-08-08T06:41:40;94768.38;;;32.11;30.86
10462;BME280;5278;42.656;23.374;2023-08-08T06:44:08;94776.94;;;32.13;30.94
10462;BME280;5278;42.656;23.374;2023-08-08T06:46:37;94772.28;;;32.27;30.33
10462;BME280;5278;42.656;23.374;2023-08-08T06:49:04;94771.97;;;32.28;30.41
10462;BME280;5278;42.656;23.374;2023-08-08T06:51:32;94751.94;;;32.12;30.50
10462;BME280;5278;42.656;23.374;2023-08-08T06:53:59;94772.91;;;32.55;30.09
10462;BME280;5278;42.656;23.374;2023-08-08T06:56:26;94781.28;;;32.53;30.18
10462;BME280;5278;42.656;23.374;2023-08-08T06:58:53;94777.03;;;32.08;30.37
10462;BME280;5278;42.656;23.374;2023-08-08T07:01:20;94781.47;;;31.40;30.84
10462;BME280;5278;42.656;23.374;2023-08-08T07:03:48;94783.88;;;30.73;31.68
10462;BME280;5278;42.656;23.374;2023-08-08T07:06:17;94772.84;;;30.10;32.32
10462;BME280;5278;42.656;23.374;2023-08-08T07:08:44;94787.88;;;29.92;31.93
10462;BME280;5278;42.656;23.374;2023-08-08T07:11:11;94780.97;;;29.86;32.81
10462;BME280;5278;42.656;23.374;2023-08-08T07:13:38;94773.56;;;29.60;33.56
10462;BME280;5278;42.656;23.374;2023-08-08T07:16:05;94773.56;;;29.41;33.65
10462;BME280;5278;42.656;23.374;2023-08-08T07:18:32;94782.78;;;29.72;32.91
10462;BME280;5278;42.656;23.374;2023-08-08T07:21:00;94770.72;;;30.26;31.89
10462;BME280;5278;42.656;23.374;2023-08-08T07:23:27;94782.94;;;30.32;30.54
10462;BME280;5278;42.656;23.374;2023-08-08T07:25:54;94759.69;;;30.73;30.17
10462;BME280;5278;42.656;23.374;2023-08-08T07:28:21;94758.25;;;31.08;29.37
10462;BME280;5278;42.656;23.374;2023-08-08T07:30:49;94772.13;;;31.24;28.75
10462;BME280;5278;42.656;23.374;2023-08-08T07:33:16;94775.16;;;31.72;28.42
10462;BME280;5278;42.656;23.374;2023-08-08T07:35:44;94766.66;;;31.79;28.51
10462;BME280;5278;42.656;23.374;2023-08-08T07:38:12;94764.81;;;32.01;27.28
10462;BME280;5278;42.656;23.374;2023-08-08T07:40:39;94781.75;;;31.66;27.74
10462;BME280;5278;42.656;23.374;2023-08-08T07:43:07;94780.91;;;31.16;28.51
10462;BME280;5278;42.656;23.374;2023-08-08T07:45:34;94780.47;;;30.95;28.85
10462;BME280;5278;42.656;23.374;2023-08-08T07:48:03;94783.19;;;31.36;28.60
10462;BME280;5278;42.656;23.374;2023-08-08T07:50:30;94785.03;;;31.49;28.07
10462;BME280;5278;42.656;23.374;2023-08-08T07:52:57;94785.66;;;30.92;27.74
10462;BME280;5278;42.656;23.374;2023-08-08T07:55:25;94780.06;;;30.74;28.40
10462;BME280;5278;42.656;23.374;2023-08-08T07:57:52;94776.59;;;30.88;28.67
10462;BME280;5278;42.656;23.374;2023-08-08T08:00:19;94766.16;;;31.00;28.45
10462;BME280;5278;42.656;23.374;2023-08-08T08:02:47;94780.13;;;31.02;28.43
10462;BME280;5278;42.656;23.374;2023-08-08T08:05:14;94779.50;;;31.32;28.30
10462;BME280;5278;42.656;23.374;2023-08-08T08:07:42;94772.94;;;31.88;27.30
10462;BME280;5278;42.656;23.374;2023-08-08T08:10:11;94773.38;;;32.26;26.67
10462;BME280;5278;42.656;23.374;2023-08-08T08:12:40;94782.50;;;32.16;26.71
10462;BME280;5278;42.656;23.374;2023-08-08T08:15:08;94769.19;;;31.12;26.64
10462;BME280;5278;42.656;23.374;2023-08-08T08:17:35;94783.25;;;31.45;27.63
10462;BME280;5278;42.656;23.374;2023-08-08T08:20:03;94772.50;;;31.94;27.18
10462;BME280;5278;42.656;23.374;2023-08-08T08:22:36;94779.94;;;32.11;26.25
10462;BME280;5278;42.656;23.374;2023-08-08T08:25:04;94786.13;;;31.48;26.74
10462;BME280;5278;42.656;23.374;2023-08-08T08:27:32;94778.84;;;31.49;27.29
10462;BME280;5278;42.656;23.374;2023-08-08T08:30:01;94766.34;;;32.16;26.44
10462;BME280;5278;42.656;23.374;2023-08-08T08:32:32;94765.81;;;33.20;25.93
10462;BME280;5278;42.656;23.374;2023-08-08T08:34:58;94771.47;;;34.01;24.94
10462;BME280;5278;42.656;23.374;2023-08-08T08:37:26;94779.56;;;33.84;25.04
10462;BME280;5278;42.656;23.374;2023-08-08T08:39:52;94775.91;;;33.80;24.77
10462;BME280;5278;42.656;23.374;2023-08-08T08:42:19;94787.84;;;33.22;25.78
10462;BME280;5278;42.656;23.374;2023-08-08T08:44:47;94768.75;;;33.67;25.25
10462;BME280;5278;42.656;23.374;2023-08-08T08:47:20;94782.19;;;33.58;24.89
10462;BME280;5278;42.656;23.374;2023-08-08T08:49:48;94783.03;;;33.11;25.60
10462;BME280;5278;42.656;23.374;2023-08-08T08:52:15;94778.88;;;32.65;26.37
10462;BME280;5278;42.656;23.374;2023-08-08T08:54:42;94783.63;;;33.47;25.32
10462;BME280;5278;42.656;23.374;2023-08-08T08:57:09;94776.06;;;34.18;24.31
10462;BME280;5278;42.656;23.374;2023-08-08T08:59:36;94766.78;;;35.09;23.17
10462;BME280;5278;42.656;23.374;2023-08-08T09:02:04;94766.97;;;35.62;23.04
10462;BME280;5278;42.656;23.374;2023-08-08T09:04:34;94736.06;;;35.13;23.15
10462;BME280;5278;42.656;23.374;2023-08-08T09:07:01;94776.72;;;34.96;23.80
10462;BME280;5278;42.656;23.374;2023-08-08T09:09:31;94768.09;;;35.40;22.96
10462;BME280;5278;42.656;23.374;2023-08-08T09:11:58;94772.53;;;36.16;22.76
10462;BME280;5278;42.656;23.374;2023-08-08T09:14:26;94779.22;;;35.68;22.99
10462;BME280;5278;42.656;23.374;2023-08-08T09:16:54;94703.75;;;35.75;22.63
10462;BME280;5278;42.656;23.374;2023-08-08T09:19:22;94762.25;;;37.48;20.49
10462;BME280;5278;42.656;23.374;2023-08-08T09:21:52;94769.00;;;38.30;20.37
10462;BME280;5278;42.656;23.374;2023-08-08T09:24:20;94747.81;;;38.95;19.67
10462;BME280;5278;42.656;23.374;2023-08-08T09:26:47;94764.31;;;39.34;19.05
10462;BME280;5278;42.656;23.374;2023-08-08T09:29:14;94777.44;;;39.32;19.37
10462;BME280;5278;42.656;23.374;2023-08-08T09:31:41;94770.47;;;39.66;18.93
10462;BME280;5278;42.656;23.374;2023-08-08T09:34:09;94771.75;;;40.07;18.96
10462;BME280;5278;42.656;23.374;2023-08-08T09:36:36;94781.03;;;40.60;17.83
10462;BME280;5278;42.656;23.374;2023-08-08T09:39:05;94780.16;;;41.20;17.32
10462;BME280;5278;42.656;23.374;2023-08-08T09:41:32;94770.97;;;41.55;17.44
10462;BME280;5278;42.656;23.374;2023-08-08T09:44:00;94738.69;;;41.34;17.19
10462;BME280;5278;42.656;23.374;2023-08-08T09:46:29;94781.78;;;42.00;16.59
10462;BME280;5278;42.656;23.374;2023-08-08T09:48:57;94768.19;;;42.34;16.50
10462;BME280;5278;42.656;23.374;2023-08-08T09:51:26;94790.25;;;42.51;15.86
10462;BME280;5278;42.656;23.374;2023-08-08T09:53:53;94779.94;;;41.82;16.52
10462;BME280;5278;42.656;23.374;2023-08-08T09:56:23;94760.00;;;41.78;16.36
10462;BME280;5278;42.656;23.374;2023-08-08T09:58:51;94768.91;;;42.31;16.38
10462;BME280;5278;42.656;23.374;2023-08-08T10:01:19;94779.06;;;42.64;16.08
10462;BME280;5278;42.656;23.374;2023-08-08T10:03:48;94774.72;;;42.59;16.29
10462;BME280;5278;42.656;23.374;2023-08-08T10:06:15;94775.78;;;42.51;15.79
10462;BME280;5278;42.656;23.374;2023-08-08T10:08:42;94778.66;;;42.28;15.65
10462;BME280;5278;42.656;23.374;2023-08-08T10:11:10;94785.59;;;42.56;15.90
10462;BME280;5278;42.656;23.374;2023-08-08T10:13:47;94771.34;;;42.73;15.28
10462;BME280;5278;42.656;23.374;2023-08-08T10:16:15;94775.81;;;42.88;14.96
10462;BME280;5278;42.656;23.374;2023-08-08T10:18:42;94785.91;;;42.17;15.71
10462;BME280;5278;42.656;23.374;2023-08-08T10:21:11;94731.31;;;41.12;16.36
10462;BME280;5278;42.656;23.374;2023-08-08T10:23:39;94774.03;;;41.27;16.91
10462;BME280;5278;42.656;23.374;2023-08-08T10:26:17;94765.22;;;41.37;16.69
10462;BME280;5278;42.656;23.374;2023-08-08T10:28:55;94773.97;;;41.46;16.39
10462;BME280;5278;42.656;23.374;2023-08-08T10:31:24;94757.72;;;41.53;16.77
10462;BME280;5278;42.656;23.374;2023-08-08T10:34:01;94772.16;;;40.43;17.88
10462;BME280;5278;42.656;23.374;2023-08-08T10:36:43;94758.09;;;40.22;17.77
10462;BME280;5278;42.656;23.374;2023-08-08T10:39:14;94765.69;;;40.94;16.85
10462;BME280;5278;42.656;23.374;2023-08-08T10:41:45;94746.25;;;41.44;17.18
10462;BME280;5278;42.656;23.374;2023-08-08T10:44:13;94738.34;;;41.92;16.50
10462;BME280;5278;42.656;23.374;2023-08-08T10:46:47;94740.94;;;41.85;16.16
10462;BME280;5278;42.656;23.374;2023-08-08T10:49:16;94734.88;;;41.95;16.65
10462;BME280;5278;42.656;23.374;2023-08-08T10:51:45;94747.19;;;41.85;16.92
10462;BME280;5278;42.656;23.374;2023-08-08T10:54:14;94736.88;;;41.72;16.47
10462;BME280;5278;42.656;23.374;2023-08-08T10:56:48;94736.34;;;41.59;16.64
10462;BME280;5278;42.656;23.374;2023-08-08T10:59:18;94737.31;;;41.47;16.85
10462;BME280;5278;42.656;23.374;2023-08-08T11:01:46;94743.59;;;41.25;17.00
10462;BME280;5278;42.656;23.374;2023-08-08T11:04:15;94729.25;;;41.32;17.23
10462;BME280;5278;42.656;23.374;2023-08-08T11:06:43;94730.56;;;41.41;16.36
10462;BME280;5278;42.656;23.374;2023-08-08T11:09:10;94726.19;;;41.10;16.76
10462;BME280;5278;42.656;23.374;2023-08-08T11:11:38;94743.69;;;41.32;16.41
10462;BME280;5278;42.656;23.374;2023-08-08T11:14:13;94738.72;;;41.38;17.03
10462;BME280;5278;42.656;23.374;2023-08-08T11:16:43;94734.84;;;41.39;16.66
10462;BME280;5278;42.656;23.374;2023-08-08T11:19:11;94735.25;;;41.14;16.54
10462;BME280;5278;42.656;23.374;2023-08-08T11:21:40;94724.44;;;40.99;17.43
10462;BME280;5278;42.656;23.374;2023-08-08T11:24:09;94725.63;;;40.56;17.12
10462;BME280;5278;42.656;23.374;2023-08-08T11:26:36;94691.75;;;39.95;17.79
10462;BME280;5278;42.656;23.374;2023-08-08T11:29:05;94730.09;;;40.06;17.98
10462;BME280;5278;42.656;23.374;2023-08-08T11:31:33;94737.69;;;39.78;18.42
10462;BME280;5278;42.656;23.374;2023-08-08T11:34:03;94728.09;;;40.03;17.84
10462;BME280;5278;42.656;23.374;2023-08-08T11:36:31;94732.97;;;38.93;18.76
10462;BME280;5278;42.656;23.374;2023-08-08T11:39:00;94725.72;;;38.10;19.53
10462;BME280;5278;42.656;23.374;2023-08-08T11:41:31;94734.09;;;37.53;19.89
10462;BME280;5278;42.656;23.374;2023-08-08T11:43:58;94731.38;;;37.53;19.80
10462;BME280;5278;42.656;23.374;2023-08-08T11:46:25;94733.41;;;37.68;20.02
10462;BME280;5278;42.656;23.374;2023-08-08T11:48:52;94733.41;;;37.68;19.80
10462;BME280;5278;42.656;23.374;2023-08-08T11:51:21;94716.69;;;37.66;19.71
10462;BME280;5278;42.656;23.374;2023-08-08T11:53:49;94711.38;;;37.57;20.00
10462;BME280;5278;42.656;23.374;2023-08-08T11:56:17;94716.34;;;36.82;20.79
10462;BME280;5278;42.656;23.374;2023-08-08T11:58:45;94708.66;;;36.60;20.94
10462;BME280;5278;42.656;23.374;2023-08-08T12:01:12;94706.44;;;36.29;21.86
10462;BME280;5278;42.656;23.374;2023-08-08T12:03:40;94713.19;;;35.19;22.64
10462;BME280;5278;42.656;23.374;2023-08-08T12:06:14;94714.97;;;34.22;24.18
10462;BME280;5278;42.656;23.374;2023-08-08T12:08:44;94709.44;;;33.76;24.80
10462;BME280;5278;42.656;23.374;2023-08-08T12:11:11;94702.09;;;33.50;24.86
10462;BME280;5278;42.656;23.374;2023-08-08T12:13:41;94696.88;;;33.37;24.87
10462;BME280;5278;42.656;23.374;2023-08-08T12:16:09;94698.19;;;33.00;25.30
10462;BME280;5278;42.656;23.374;2023-08-08T12:18:37;94665.22;;;32.46;26.21
10462;BME280;5278;42.656;23.374;2023-08-08T12:21:04;94693.25;;;32.54;26.32
10462;BME280;5278;42.656;23.374;2023-08-08T12:23:32;94703.28;;;32.31;26.29
10462;BME280;5278;42.656;23.374;2023-08-08T12:26:03;94692.50;;;32.22;25.89
10462;BME280;5278;42.656;23.374;2023-08-08T12:28:31;94694.97;;;32.19;26.24
10462;BME280;5278;42.656;23.374;2023-08-08T12:30:58;94696.25;;;32.13;26.01
10462;BME280;5278;42.656;23.374;2023-08-08T12:33:27;94696.63;;;32.06;26.83
10462;BME280;5278;42.656;23.374;2023-08-08T12:35:53;94689.25;;;31.89;26.59
10462;BME280;5278;42.656;23.374;2023-08-08T12:38:20;94695.66;;;31.80;26.76
10462;BME280;5278;42.656;23.374;2023-08-08T12:40:47;94690.91;;;31.77;27.06
10462;BME280;5278;42.656;23.374;2023-08-08T12:43:16;94692.06;;;31.62;27.44
10462;BME280;5278;42.656;23.374;2023-08-08T12:45:44;94688.91;;;31.46;27.50
10462;BME280;5278;42.656;23.374;2023-08-08T12:48:11;94686.41;;;31.50;27.49
10462;BME280;5278;42.656;23.374;2023-08-08T12:50:38;94690.38;;;31.52;27.19
10462;BME280;5278;42.656;23.374;2023-08-08T12:53:06;94690.56;;;31.56;27.00
10462;BME280;5278;42.656;23.374;2023-08-08T12:55:33;94686.69;;;31.48;27.25
10462;BME280;5278;42.656;23.374;2023-08-08T12:58:01;94684.56;;;31.37;27.54
10462;BME280;5278;42.656;23.374;2023-08-08T13:00:29;94676.78;;;31.35;27.78
10462;BME280;5278;42.656;23.374;2023-08-08T13:02:56;94676.34;;;31.19;27.26
10462;BME280;5278;42.656;23.374;2023-08-08T13:05:23;94687.41;;;30.91;27.29
10462;BME280;5278;42.656;23.374;2023-08-08T13:07:50;94661.75;;;30.44;28.03